Time;durP1;ratioP1;P1;durP2;ratioP2;P2;SDS_P1;SDS_P2;PMS_P1;PMS_P2;Temp;Humidity;BMP_temperature;BMP_pressure;BME280_temperature;BME280_humidity;BME280_pressure;Samples;Min_cycle;Max_cycle;Signal;HPM_P1;HPM_P2
2023/11/22 00:01:57;;;;;;;0.82;0.82;;;;;;;5.05;88.03;98876.50;4995400;28;20040;-77
2023/11/22 00:04:22;;;;;;;0.90;0.90;;;;;;;4.96;88.27;98878.66;4993139;28;20030;-77
2023/11/22 00:06:48;;;;;;;0.90;0.90;;;;;;;4.93;87.94;98880.22;4994245;28;20073;-77
2023/11/22 00:09:14;;;;;;;0.90;0.90;;;;;;;4.83;88.07;98878.81;4994696;28;20116;-77
2023/11/22 00:11:40;;;;;;;0.90;0.90;;;;;;;4.80;88.65;98869.00;4993214;28;20363;-77
2023/11/22 00:14:06;;;;;;;0.90;0.90;;;;;;;4.72;88.36;98870.31;4989819;28;20477;-77
2023/11/22 00:16:31;;;;;;;0.90;0.90;;;;;;;4.68;89.08;98872.72;4995732;28;20037;-77
2023/11/22 00:18:57;;;;;;;0.80;0.80;;;;;;;4.69;88.92;98871.88;4998826;28;20083;-77
2023/11/22 00:21:22;;;;;;;0.90;0.90;;;;;;;4.69;88.94;98874.53;4993200;28;21578;-77
2023/11/22 00:23:48;;;;;;;0.82;0.82;;;;;;;4.67;89.47;98874.44;4999352;28;20140;-77
2023/11/22 00:26:15;;;;;;;0.80;0.80;;;;;;;4.68;89.20;98873.63;4990265;28;20045;-77
2023/11/22 00:28:43;;;;;;;0.90;0.90;;;;;;;4.61;87.68;98867.09;4996693;28;20026;-77
2023/11/22 00:31:09;;;;;;;0.95;0.95;;;;;;;4.59;87.38;98873.13;4997285;28;21091;-77
2023/11/22 00:33:34;;;;;;;1.00;1.00;;;;;;;4.55;86.61;98881.69;5000417;28;20045;-77
2023/11/22 00:36:00;;;;;;;1.00;1.00;;;;;;;4.48;86.20;98882.19;4997136;28;20038;-77
2023/11/22 00:38:26;;;;;;;1.00;1.00;;;;;;;4.47;85.98;98877.75;4998585;28;20129;-77
2023/11/22 00:40:51;;;;;;;0.90;0.90;;;;;;;4.39;86.67;98890.50;4996684;28;20038;-77
2023/11/22 00:43:18;;;;;;;0.90;0.90;;;;;;;4.46;85.77;98889.16;4998872;28;20022;-77
2023/11/22 00:45:43;;;;;;;1.00;1.00;;;;;;;4.37;85.78;98890.44;4997698;28;20124;-77
2023/11/22 00:48:09;;;;;;;0.90;0.90;;;;;;;4.34;86.51;98895.53;4995963;28;20535;-77
2023/11/22 00:50:34;;;;;;;0.90;0.90;;;;;;;4.36;86.74;98893.91;5002690;28;20069;-77
2023/11/22 00:53:00;;;;;;;0.93;0.93;;;;;;;4.31;86.61;98891.81;4994861;28;20492;-77
2023/11/22 00:55:26;;;;;;;0.90;0.90;;;;;;;4.34;87.02;98898.19;4996520;28;20038;-77
2023/11/22 00:57:52;;;;;;;1.00;1.00;;;;;;;4.33;87.68;98900.75;4994251;28;20048;-77
2023/11/22 01:00:18;;;;;;;0.90;0.90;;;;;;;4.40;87.38;98907.28;4995181;28;20033;-77
2023/11/22 01:02:44;;;;;;;0.90;0.90;;;;;;;4.30;88.37;98912.03;4996458;28;20084;-76
2023/11/22 01:05:10;;;;;;;1.00;1.00;;;;;;;4.24;88.60;98921.34;5012256;28;20933;-76
2023/11/22 01:07:36;;;;;;;0.90;0.90;;;;;;;4.28;88.40;98924.25;4991235;28;20384;-76
2023/11/22 01:10:02;;;;;;;0.90;0.90;;;;;;;4.27;87.05;98930.38;4995858;28;20522;-76
2023/11/22 01:12:27;;;;;;;1.00;1.00;;;;;;;4.20;87.24;98919.34;4996295;28;20040;-77
2023/11/22 01:14:53;;;;;;;0.90;0.90;;;;;;;4.18;86.90;98929.84;4995660;28;20054;-77
2023/11/22 01:17:18;;;;;;;1.00;1.00;;;;;;;4.12;86.46;98934.78;4997846;28;20026;-77
2023/11/22 01:19:44;;;;;;;0.90;0.90;;;;;;;4.03;86.47;98932.50;4997541;28;20033;-77
2023/11/22 01:22:09;;;;;;;0.90;0.90;;;;;;;4.04;86.31;98947.53;4996821;28;20045;-77
2023/11/22 01:24:37;;;;;;;0.90;0.90;;;;;;;4.03;86.71;98950.09;4996671;28;20112;-77
2023/11/22 01:27:03;;;;;;;1.00;1.00;;;;;;;4.02;86.01;98950.88;4996790;28;20406;-76
2023/11/22 01:29:28;;;;;;;1.10;1.10;;;;;;;3.98;85.54;98949.81;4994828;28;20125;-76
2023/11/22 01:31:55;;;;;;;0.90;0.90;;;;;;;3.95;86.28;98954.00;4994772;28;20120;-77
2023/11/22 01:34:20;;;;;;;1.00;1.00;;;;;;;3.86;85.81;98955.28;4995354;28;20061;-76
2023/11/22 01:36:49;;;;;;;1.00;1.00;;;;;;;3.83;84.21;98963.03;4993642;28;20144;-76
2023/11/22 01:39:15;;;;;;;1.00;1.00;;;;;;;3.81;84.46;98963.75;5001086;28;20037;-77
2023/11/22 01:41:43;;;;;;;1.00;1.00;;;;;;;3.72;83.33;98972.03;4994970;28;20044;-76
2023/11/22 01:44:09;;;;;;;0.90;0.90;;;;;;;3.62;82.66;98968.75;4991683;28;20034;-76
2023/11/22 01:46:35;;;;;;;1.00;1.00;;;;;;;3.58;83.75;98968.56;4996793;28;20034;-77
2023/11/22 01:49:01;;;;;;;0.90;0.90;;;;;;;3.56;83.37;98964.03;4994817;28;20058;-76
2023/11/22 01:51:27;;;;;;;1.00;1.00;;;;;;;3.47;83.56;98972.28;5014744;28;21270;-76
2023/11/22 01:53:57;;;;;;;1.08;1.08;;;;;;;3.49;83.76;98972.38;4997615;28;20793;-76
2023/11/22 01:56:26;;;;;;;0.90;0.90;;;;;;;3.43;83.62;98974.63;4999177;28;20153;-76
2023/11/22 01:58:54;;;;;;;0.90;0.90;;;;;;;3.43;84.17;98977.28;4996261;28;20038;-76
2023/11/22 02:01:20;;;;;;;1.00;1.00;;;;;;;3.38;84.95;98989.28;4995132;28;20487;-76
2023/11/22 02:03:49;;;;;;;1.00;1.00;;;;;;;3.40;82.90;98992.91;4998777;28;20022;-76
2023/11/22 02:06:18;;;;;;;1.00;1.00;;;;;;;3.39;83.64;98991.09;4993255;28;20049;-77
2023/11/22 02:08:43;;;;;;;0.90;0.90;;;;;;;3.34;82.89;98993.44;4996506;28;20092;-76
2023/11/22 02:11:09;;;;;;;1.02;1.02;;;;;;;3.36;82.37;98996.19;4995080;28;20551;-76
2023/11/22 02:13:35;;;;;;;0.90;0.90;;;;;;;3.34;82.31;99006.63;4995853;28;20521;-76
2023/11/22 02:16:01;;;;;;;1.00;1.00;;;;;;;3.33;82.14;99013.63;4993646;28;20096;-76
2023/11/22 02:18:27;;;;;;;1.00;1.00;;;;;;;3.34;81.66;99022.44;4993694;28;20030;-76
2023/11/22 02:20:53;;;;;;;0.98;0.98;;;;;;;3.33;83.06;99024.19;4994453;28;20398;-76
2023/11/22 02:23:18;;;;;;;0.90;0.90;;;;;;;3.26;81.22;99016.72;4996098;28;20689;-76
2023/11/22 02:25:45;;;;;;;0.90;0.90;;;;;;;3.36;81.23;99023.47;4994015;28;20033;-76
2023/11/22 02:28:12;;;;;;;1.00;1.00;;;;;;;3.31;81.29;99025.81;5000071;28;20129;-76
2023/11/22 02:30:38;;;;;;;1.00;1.00;;;;;;;3.24;80.78;99027.97;5000165;28;20045;-76
2023/11/22 02:33:07;;;;;;;1.00;1.00;;;;;;;3.25;81.09;99032.41;5000556;28;20436;-75
2023/11/22 02:35:33;;;;;;;0.90;0.90;;;;;;;3.24;80.12;99030.59;4972564;28;20026;-76
2023/11/22 02:37:59;;;;;;;1.00;1.00;;;;;;;3.22;82.02;99029.63;4998351;28;20029;-76
2023/11/22 02:40:25;;;;;;;1.00;1.00;;;;;;;3.16;82.57;99034.47;4998666;28;20427;-76
2023/11/22 02:42:53;;;;;;;0.90;0.90;;;;;;;3.05;82.34;99042.63;4992576;28;20198;-76
2023/11/22 02:45:26;;;;;;;0.90;0.90;;;;;;;3.06;83.17;99041.81;4991322;28;20034;-76
2023/11/22 02:47:52;;;;;;;1.00;1.00;;;;;;;2.96;82.88;99043.78;4993883;28;20188;-76
2023/11/22 02:50:18;;;;;;;1.00;1.00;;;;;;;2.86;81.42;99031.72;4992192;28;20133;-77
2023/11/22 02:52:45;;;;;;;1.00;1.00;;;;;;;2.75;81.81;99028.41;4990981;28;20044;-76
2023/11/22 02:55:10;;;;;;;1.00;1.00;;;;;;;2.69;83.00;99033.31;4995508;28;20030;-76
2023/11/22 02:57:37;;;;;;;1.00;1.00;;;;;;;2.66;82.39;99040.09;4993041;28;20033;-77
2023/11/22 03:00:07;;;;;;;1.00;1.00;;;;;;;2.57;82.74;99049.19;4989165;28;20088;-76
2023/11/22 03:02:34;;;;;;;1.00;1.00;;;;;;;2.46;82.74;99044.06;5002305;28;20044;-76
2023/11/22 03:04:59;;;;;;;1.00;1.00;;;;;;;2.49;83.68;99052.13;4995589;28;20095;-76
2023/11/22 03:07:28;;;;;;;1.00;1.00;;;;;;;2.43;83.44;99043.84;4995315;28;21557;-76
2023/11/22 03:09:53;;;;;;;1.00;1.00;;;;;;;2.46;83.53;99051.97;4990451;28;20042;-76
2023/11/22 03:12:23;;;;;;;1.00;1.00;;;;;;;2.47;82.19;99048.50;4995135;28;20045;-76
2023/11/22 03:14:48;;;;;;;1.10;1.10;;;;;;;2.45;82.27;99050.16;4994415;28;20365;-76
2023/11/22 03:17:17;;;;;;;1.00;1.00;;;;;;;2.47;81.08;99054.69;4993394;28;20033;-76
2023/11/22 03:19:45;;;;;;;1.00;1.00;;;;;;;2.59;80.25;99065.13;4992574;28;20836;-77
2023/11/22 03:22:10;;;;;;;;;;;;;;;2.50;81.55;99077.69;4991564;28;20038;-77
2023/11/22 03:24:36;;;;;;;1.00;1.00;;;;;;;2.49;82.82;99086.38;4995298;28;19928;-77
2023/11/22 03:27:02;;;;;;;0.93;0.93;;;;;;;2.51;80.82;99097.94;4999650;28;20077;-77
2023/11/22 03:29:29;;;;;;;1.00;1.00;;;;;;;2.46;81.69;99099.34;4995051;28;20153;-77
2023/11/22 03:31:54;;;;;;;1.10;1.10;;;;;;;2.46;82.11;99099.34;4992450;28;20046;-77
2023/11/22 03:34:20;;;;;;;1.00;1.00;;;;;;;2.49;82.83;99097.84;4987506;28;20287;-77
2023/11/22 03:36:46;;;;;;;1.10;1.10;;;;;;;2.43;80.63;99105.31;4992971;28;20038;-77
2023/11/22 03:39:14;;;;;;;1.00;1.00;;;;;;;2.64;81.39;99111.13;4975290;28;20040;-77
2023/11/22 03:41:40;;;;;;;1.00;1.00;;;;;;;2.55;81.85;99126.31;4988786;28;20072;-77
2023/11/22 03:44:08;;;;;;;1.05;1.05;;;;;;;2.55;80.51;99127.22;4992908;28;20030;-77
2023/11/22 03:46:38;;;;;;;1.00;1.00;;;;;;;2.54;79.90;99130.66;4992341;28;20033;-77
2023/11/22 03:49:06;;;;;;;1.00;1.00;;;;;;;2.52;80.48;99136.63;4996171;28;20057;-77
2023/11/22 03:51:33;;;;;;;1.00;1.00;;;;;;;2.51;80.17;99142.72;4999233;28;20161;-77
2023/11/22 03:53:59;;;;;;;1.00;1.00;;;;;;;2.47;80.05;99138.03;4998022;28;20030;-77
2023/11/22 03:56:25;;;;;;;0.93;0.93;;;;;;;2.46;79.98;99141.50;4999379;28;20026;-77
2023/11/22 03:58:50;;;;;;;1.10;1.10;;;;;;;2.45;81.06;99139.69;4999351;28;20439;-77
2023/11/22 04:01:16;;;;;;;1.00;1.00;;;;;;;2.48;79.31;99140.78;4998860;28;20034;-77
2023/11/22 04:03:44;;;;;;;1.00;1.00;;;;;;;2.52;80.40;99140.16;4997068;28;20128;-77
2023/11/22 04:06:10;;;;;;;1.00;1.00;;;;;;;2.45;79.88;99137.94;4996185;28;20046;-77
2023/11/22 04:08:35;;;;;;;0.90;0.90;;;;;;;2.40;80.02;99139.38;4998260;28;20041;-77
2023/11/22 04:11:01;;;;;;;1.00;1.00;;;;;;;2.33;80.55;99146.72;4996373;28;20034;-78
2023/11/22 04:13:27;;;;;;;1.00;1.00;;;;;;;2.41;81.26;99158.72;4995645;28;20030;-78
2023/11/22 04:15:52;;;;;;;0.90;0.90;;;;;;;2.48;80.72;99158.28;4999034;28;20034;-77
2023/11/22 04:18:18;;;;;;;1.00;1.00;;;;;;;2.36;81.79;99155.75;4997955;28;20033;-78
2023/11/22 04:20:44;;;;;;;1.00;1.00;;;;;;;2.36;79.54;99162.75;4996654;28;20034;-78
2023/11/22 04:23:10;;;;;;;1.00;1.00;;;;;;;2.25;80.48;99173.47;4996830;28;20034;-78
2023/11/22 04:25:37;;;;;;;1.00;1.00;;;;;;;2.04;80.54;99177.22;5000274;28;20033;-77
2023/11/22 04:28:02;;;;;;;1.08;1.08;;;;;;;1.83;81.09;99171.41;4997763;28;20045;-77
2023/11/22 04:30:28;;;;;;;0.90;0.90;;;;;;;1.61;82.21;99171.59;4997988;28;20022;-78
2023/11/22 04:32:53;;;;;;;1.10;1.10;;;;;;;1.40;82.71;99185.84;4997486;28;20065;-78
2023/11/22 04:35:19;;;;;;;1.08;1.08;;;;;;;1.03;84.17;99185.78;4994541;28;20046;-77
2023/11/22 04:37:44;;;;;;;1.10;1.10;;;;;;;0.77;85.24;99186.50;4997723;28;20045;-78
2023/11/22 04:40:14;;;;;;;1.10;1.10;;;;;;;0.75;86.00;99191.63;4997831;28;20083;-78
2023/11/22 04:42:40;;;;;;;1.00;1.00;;;;;;;0.66;86.68;99204.06;4997278;28;20545;-78
2023/11/22 04:45:06;;;;;;;1.00;1.00;;;;;;;0.40;86.94;99203.81;4996116;28;20069;-77
2023/11/22 04:47:33;;;;;;;1.10;1.10;;;;;;;0.40;87.13;99201.22;4997533;28;20049;-77
2023/11/22 04:49:58;;;;;;;1.10;1.10;;;;;;;0.30;87.38;99214.44;5001961;28;20653;-77
2023/11/22 04:52:24;;;;;;;1.10;1.10;;;;;;;0.47;87.64;99216.59;4996671;28;20018;-76
2023/11/22 04:54:49;;;;;;;1.10;1.10;;;;;;;0.72;86.82;99220.31;4995542;28;20566;-77
2023/11/22 04:57:15;;;;;;;1.10;1.10;;;;;;;0.96;86.50;99218.59;4993568;28;20042;-77
2023/11/22 04:59:40;;;;;;;1.10;1.10;;;;;;;1.07;86.19;99227.25;4997067;28;20511;-76
2023/11/22 05:02:07;;;;;;;1.00;1.00;;;;;;;1.03;86.24;99226.13;4993841;28;20045;-77
2023/11/22 05:04:32;;;;;;;1.10;1.10;;;;;;;1.14;85.81;99228.63;4980062;28;20030;-77
2023/11/22 05:07:01;;;;;;;0.90;0.90;;;;;;;1.38;85.05;99233.03;4997855;28;20129;-78
2023/11/22 05:09:26;;;;;;;1.00;1.00;;;;;;;1.42;84.65;99242.06;4999068;28;20451;-77
2023/11/22 05:11:55;;;;;;;1.10;1.10;;;;;;;1.48;83.70;99243.41;4996959;28;20092;-77
2023/11/22 05:14:29;;;;;;;1.00;1.00;;;;;;;1.71;83.24;99246.81;4995859;28;20034;-77
2023/11/22 05:17:04;;;;;;;1.10;1.10;;;;;;;1.78;83.68;99244.72;4986798;28;20093;-77
2023/11/22 05:19:38;;;;;;;1.00;1.00;;;;;;;1.80;84.08;99243.09;4995000;28;20045;-77
2023/11/22 05:22:12;;;;;;;1.10;1.10;;;;;;;1.81;83.90;99249.28;4991556;28;20041;-76
2023/11/22 05:24:41;;;;;;;1.00;1.00;;;;;;;1.88;82.30;99250.66;4995329;28;20034;-77
2023/11/22 05:27:09;;;;;;;1.00;1.00;;;;;;;1.95;83.86;99252.91;4995835;28;20495;-76
2023/11/22 05:29:35;;;;;;;1.05;1.05;;;;;;;1.92;83.45;99247.44;4993506;28;20137;-76
2023/11/22 05:32:02;;;;;;;1.00;1.00;;;;;;;2.06;81.50;99259.84;4997541;28;20026;-76
2023/11/22 05:34:28;;;;;;;1.00;1.00;;;;;;;2.03;81.33;99255.28;4995719;28;20109;-77
2023/11/22 05:36:54;;;;;;;1.00;1.00;;;;;;;2.14;79.94;99252.47;4995525;28;20219;-77
2023/11/22 05:39:22;;;;;;;1.00;1.00;;;;;;;2.28;78.21;99251.72;4996630;28;20113;-77
2023/11/22 05:41:48;;;;;;;1.05;1.05;;;;;;;2.19;78.87;99259.88;4994811;28;20088;-77
2023/11/22 05:44:14;;;;;;;1.10;1.10;;;;;;;2.29;80.04;99264.97;5000094;28;20038;-77
2023/11/22 05:46:40;;;;;;;1.00;1.00;;;;;;;2.37;79.48;99262.00;4995871;28;20079;-77
2023/11/22 05:49:05;;;;;;;1.10;1.10;;;;;;;2.29;78.81;99257.09;4995261;28;20121;-76
2023/11/22 05:51:31;;;;;;;1.00;1.00;;;;;;;2.41;78.90;99261.41;4983444;28;20486;-77
2023/11/22 05:53:56;;;;;;;1.00;1.00;;;;;;;2.34;78.89;99270.56;4994961;28;20935;-77
2023/11/22 05:56:21;;;;;;;1.00;1.00;;;;;;;2.41;79.01;99271.94;4997352;28;20038;-77
2023/11/22 05:58:48;;;;;;;0.90;0.90;;;;;;;2.46;78.38;99283.69;4999302;28;20045;-77
2023/11/22 06:01:13;;;;;;;1.00;1.00;;;;;;;2.43;79.12;99284.38;4995745;28;20029;-78
2023/11/22 06:03:39;;;;;;;1.02;1.02;;;;;;;2.43;79.41;99286.09;4992417;28;20081;-77
2023/11/22 06:06:06;;;;;;;0.95;0.95;;;;;;;2.43;79.27;99297.53;4989534;28;20639;-78
2023/11/22 06:08:33;;;;;;;1.08;1.08;;;;;;;2.52;78.69;99294.66;4990331;28;20026;-77
2023/11/22 06:10:59;;;;;;;;;;;;;;;2.52;80.04;99310.44;4984812;28;20038;-78
2023/11/22 06:13:26;;;;;;;1.00;1.00;;;;;;;2.58;80.07;99305.59;4995267;28;19910;-78
2023/11/22 06:15:51;;;;;;;1.10;1.10;;;;;;;2.57;79.65;99303.78;4995219;28;20040;-78
2023/11/22 06:18:18;;;;;;;1.00;1.00;;;;;;;2.55;79.37;99305.41;4994798;28;20034;-78
2023/11/22 06:20:44;;;;;;;1.05;1.05;;;;;;;2.46;81.01;99317.94;4978695;28;20120;-78
2023/11/22 06:23:10;;;;;;;0.98;0.98;;;;;;;2.40;80.68;99314.88;4993522;28;20091;-78
2023/11/22 06:25:41;;;;;;;1.00;1.00;;;;;;;2.52;80.40;99334.16;4996899;28;20038;-78
2023/11/22 06:28:07;;;;;;;1.00;1.00;;;;;;;2.54;79.12;99329.94;4997105;28;20542;-78
2023/11/22 06:30:33;;;;;;;1.00;1.00;;;;;;;2.56;78.20;99331.84;4991799;28;20038;-77
2023/11/22 06:32:59;;;;;;;1.10;1.10;;;;;;;2.52;77.99;99332.44;4995392;28;20044;-78
2023/11/22 06:35:24;;;;;;;1.00;1.00;;;;;;;2.53;79.42;99333.34;4991519;28;20038;-77
2023/11/22 06:37:50;;;;;;;1.00;1.00;;;;;;;2.52;79.83;99328.88;4995210;28;20036;-78
2023/11/22 06:40:16;;;;;;;1.05;1.05;;;;;;;2.55;79.42;99326.47;4992711;28;20448;-78
2023/11/22 06:42:42;;;;;;;1.10;1.10;;;;;;;2.66;79.17;99333.41;5000366;28;20057;-78
2023/11/22 06:45:12;;;;;;;1.00;1.00;;;;;;;2.63;79.42;99333.16;4995236;28;20665;-78
2023/11/22 06:47:42;;;;;;;0.95;0.95;;;;;;;2.64;79.55;99342.03;4994403;28;20034;-78
2023/11/22 06:50:12;;;;;;;1.00;1.00;;;;;;;2.64;80.05;99348.19;5000979;28;20026;-78
2023/11/22 06:52:41;;;;;;;1.00;1.00;;;;;;;2.61;78.63;99345.34;4990047;28;20119;-77
2023/11/22 06:55:08;;;;;;;1.00;1.00;;;;;;;2.60;78.81;99343.50;4995152;28;20570;-77
2023/11/22 06:57:37;;;;;;;1.00;1.00;;;;;;;2.57;80.47;99353.81;4995381;28;20105;-77
2023/11/22 07:00:04;;;;;;;1.05;1.05;;;;;;;2.60;79.95;99356.69;4995324;28;20061;-78
2023/11/22 07:02:31;;;;;;;1.00;1.00;;;;;;;2.55;80.67;99351.09;4993226;28;20046;-77
2023/11/22 07:04:58;;;;;;;1.10;1.10;;;;;;;2.56;79.26;99349.38;4993259;28;20400;-78
2023/11/22 07:07:25;;;;;;;1.00;1.00;;;;;;;2.62;78.79;99360.31;4994053;28;20033;-77
2023/11/22 07:09:50;;;;;;;0.90;0.90;;;;;;;2.72;79.23;99347.00;4994378;28;20091;-77
2023/11/22 07:12:16;;;;;;;1.00;1.00;;;;;;;2.76;79.13;99349.03;5001620;28;20038;-78
2023/11/22 07:14:43;;;;;;;0.90;0.90;;;;;;;2.76;79.01;99354.31;4996743;28;20431;-76
2023/11/22 07:17:09;;;;;;;1.00;1.00;;;;;;;2.77;80.00;99361.38;4995050;28;20068;-77
2023/11/22 07:19:37;;;;;;;1.08;1.08;;;;;;;2.68;79.00;99363.38;4993328;28;20380;-77
2023/11/22 07:22:15;;;;;;;0.98;0.98;;;;;;;2.56;79.94;99375.72;4994093;28;20221;-77
2023/11/22 07:24:47;;;;;;;1.00;1.00;;;;;;;2.52;79.34;99374.56;4995587;28;20033;-76
2023/11/22 07:27:17;;;;;;;1.00;1.00;;;;;;;2.42;80.38;99386.97;4993510;28;20049;-76
2023/11/22 07:29:44;;;;;;;1.00;1.00;;;;;;;2.43;81.11;99391.44;4994980;28;20104;-76
2023/11/22 07:32:10;;;;;;;1.10;1.10;;;;;;;2.31;80.96;99410.84;4994382;28;20034;-77
2023/11/22 07:34:36;;;;;;;1.10;1.10;;;;;;;2.32;80.96;99422.28;4994748;28;20033;-77
2023/11/22 07:37:02;;;;;;;1.00;1.00;;;;;;;2.21;80.65;99426.78;4996221;28;20298;-77
2023/11/22 07:39:28;;;;;;;1.00;1.00;;;;;;;2.06;80.02;99428.28;4993298;28;20034;-77
2023/11/22 07:41:54;;;;;;;1.00;1.00;;;;;;;1.99;79.93;99429.53;4993638;28;20034;-76
2023/11/22 07:44:21;;;;;;;1.10;1.10;;;;;;;1.97;80.02;99430.25;4995599;28;20030;-77
2023/11/22 07:46:47;;;;;;;1.08;1.08;;;;;;;2.03;79.74;99441.22;4995605;28;20030;-77
2023/11/22 07:49:13;;;;;;;1.00;1.00;;;;;;;1.91;79.70;99437.66;4993395;28;20085;-77
2023/11/22 07:51:39;;;;;;;0.95;0.95;;;;;;;1.80;78.46;99434.25;4991960;28;20030;-77
2023/11/22 07:54:05;;;;;;;1.00;1.00;;;;;;;1.79;79.13;99454.38;4994667;28;20030;-77
2023/11/22 07:56:32;;;;;;;1.10;1.10;;;;;;;1.75;79.03;99451.41;4994019;28;20536;-77
2023/11/22 07:58:58;;;;;;;1.02;1.02;;;;;;;1.70;78.72;99450.13;4993837;28;20026;-77
2023/11/22 08:01:25;;;;;;;1.08;1.08;;;;;;;1.71;79.30;99449.34;4994870;28;20037;-77
2023/11/22 08:03:55;;;;;;;1.10;1.10;;;;;;;1.75;80.24;99451.41;4991574;28;20124;-77
2023/11/22 08:06:21;;;;;;;1.05;1.05;;;;;;;1.73;79.10;99453.00;4990697;28;20045;-77
2023/11/22 08:08:47;;;;;;;1.10;1.10;;;;;;;1.75;78.36;99449.69;4995712;28;20511;-77
2023/11/22 08:11:17;;;;;;;0.98;0.98;;;;;;;1.71;78.81;99450.25;4991700;28;20140;-77
2023/11/22 08:13:44;;;;;;;1.10;1.10;;;;;;;1.68;79.36;99454.38;4998297;28;20030;-78
2023/11/22 08:16:13;;;;;;;1.10;1.10;;;;;;;1.76;77.95;99454.13;4991224;28;20091;-76
2023/11/22 08:18:39;;;;;;;1.02;1.02;;;;;;;1.66;77.96;99448.97;4991501;28;20895;-77
2023/11/22 08:21:04;;;;;;;1.00;1.00;;;;;;;1.61;78.47;99450.34;4992807;28;20520;-77
2023/11/22 08:23:32;;;;;;;1.10;1.10;;;;;;;1.60;77.68;99459.06;4995397;28;20045;-77
2023/11/22 08:26:05;;;;;;;1.00;1.00;;;;;;;1.65;78.80;99465.56;4993023;28;20046;-77
2023/11/22 08:28:34;;;;;;;1.10;1.10;;;;;;;1.65;78.37;99468.19;4994531;28;20054;-77
2023/11/22 08:31:00;;;;;;;1.10;1.10;;;;;;;1.71;78.82;99473.00;4994062;28;20034;-77
2023/11/22 08:33:26;;;;;;;1.00;1.00;;;;;;;1.78;78.93;99473.59;4992363;28;20022;-79
2023/11/22 08:36:00;;;;;;;1.00;1.00;;;;;;;1.94;78.42;99464.22;4978509;28;20125;-78
2023/11/22 08:38:28;;;;;;;1.10;1.10;;;;;;;1.90;77.70;99456.88;5003676;28;20534;-79
2023/11/22 08:40:57;;;;;;;0.93;0.93;;;;;;;2.03;79.04;99465.81;4995248;28;20037;-79
2023/11/22 08:43:25;;;;;;;1.10;1.10;;;;;;;1.81;77.24;99467.63;4996543;28;20026;-79
2023/11/22 08:45:51;;;;;;;1.10;1.10;;;;;;;1.85;77.78;99463.53;4995406;28;20037;-79
2023/11/22 08:48:16;;;;;;;1.00;1.00;;;;;;;1.76;77.31;99466.38;4995905;28;20030;-78
2023/11/22 08:50:47;;;;;;;1.20;1.20;;;;;;;1.63;77.34;99472.44;4997140;28;20030;-78
2023/11/22 08:53:13;;;;;;;1.10;1.10;;;;;;;1.76;76.73;99475.19;4985352;28;20030;-77
2023/11/22 08:55:39;;;;;;;1.10;1.10;;;;;;;1.82;77.36;99468.53;4994726;28;20037;-80
2023/11/22 08:58:05;;;;;;;1.08;1.08;;;;;;;2.01;76.70;99463.84;4996272;28;20045;-78
2023/11/22 09:00:32;;;;;;;1.10;1.10;;;;;;;1.95;77.95;99463.41;4994238;28;20033;-78
2023/11/22 09:02:58;;;;;;;1.10;1.10;;;;;;;2.04;76.41;99458.81;4998054;28;20036;-78
2023/11/22 09:05:23;;;;;;;1.10;1.10;;;;;;;2.02;77.00;99456.09;4995407;28;20467;-78
2023/11/22 09:07:50;;;;;;;1.10;1.10;;;;;;;2.13;75.56;99456.88;4996308;28;20038;-79
2023/11/22 09:10:18;;;;;;;;;;;;;;;1.99;75.80;99457.56;4996731;28;20454;-77
2023/11/22 09:12:43;;;;;;;1.10;1.10;;;;;;;1.73;75.81;99466.16;5001313;28;20441;-77
2023/11/22 09:15:15;;;;;;;1.10;1.10;;;;;;;1.79;76.25;99449.09;4995400;28;20034;-78
2023/11/22 09:17:43;;;;;;;1.10;1.10;;;;;;;1.68;76.29;99457.94;5000084;28;20053;-79
2023/11/22 09:20:11;;;;;;;1.00;1.00;;;;;;;1.89;75.84;99466.50;4996930;28;20113;-78
2023/11/22 09:22:45;;;;;;;1.10;1.10;;;;;;;1.74;75.95;99465.34;4998784;28;20103;-79
2023/11/22 09:25:11;;;;;;;1.00;1.00;;;;;;;1.94;76.37;99470.38;4998101;28;20514;-79
2023/11/22 09:27:37;;;;;;;1.00;1.00;;;;;;;2.01;75.93;99474.38;4998075;28;20076;-79
2023/11/22 09:30:05;;;;;;;1.10;1.10;;;;;;;2.31;75.58;99473.09;4997403;28;20120;-76
2023/11/22 09:32:31;;;;;;;1.10;1.10;;;;;;;2.25;75.87;99476.22;4997641;28;20046;-76
2023/11/22 09:34:58;;;;;;;1.00;1.00;;;;;;;2.04;74.23;99479.88;4995462;28;20030;-77
2023/11/22 09:37:24;;;;;;;1.10;1.10;;;;;;;2.16;74.89;99472.00;4997200;28;20113;-78
2023/11/22 09:39:51;;;;;;;1.10;1.10;;;;;;;2.13;75.05;99477.03;4996645;28;20040;-77
2023/11/22 09:42:17;;;;;;;1.10;1.10;;;;;;;2.47;73.72;99480.41;4995130;28;20351;-77
2023/11/22 09:44:43;;;;;;;1.10;1.10;;;;;;;2.00;74.37;99480.44;4994548;28;20025;-78
2023/11/22 09:47:09;;;;;;;1.10;1.10;;;;;;;2.23;74.97;99490.06;4995492;28;20517;-77
2023/11/22 09:49:40;;;;;;;1.10;1.10;;;;;;;1.96;74.23;99496.81;4993569;28;20026;-77
2023/11/22 09:52:11;;;;;;;1.00;1.00;;;;;;;2.13;75.44;99496.34;4996504;28;20038;-78
2023/11/22 09:54:40;;;;;;;1.10;1.10;;;;;;;1.92;74.77;99507.94;4999236;28;20044;-77
2023/11/22 09:57:10;;;;;;;1.10;1.10;;;;;;;1.76;74.88;99513.72;4996415;28;20034;-78
2023/11/22 09:59:39;;;;;;;1.10;1.10;;;;;;;1.92;74.77;99526.34;4995224;28;20037;-78
2023/11/22 10:02:06;;;;;;;1.10;1.10;;;;;;;1.92;74.79;99518.44;4995068;28;20088;-77
2023/11/22 10:04:32;;;;;;;1.10;1.10;;;;;;;2.04;75.99;99522.00;4995929;28;20511;-78
2023/11/22 10:06:58;;;;;;;1.10;1.10;;;;;;;1.95;74.62;99526.56;4994627;28;20153;-78
2023/11/22 10:09:24;;;;;;;1.10;1.10;;;;;;;2.12;74.60;99528.75;4996840;28;20044;-78
2023/11/22 10:11:50;;;;;;;1.10;1.10;;;;;;;2.07;74.57;99534.47;4987957;28;20029;-77
2023/11/22 10:14:24;;;;;;;1.10;1.10;;;;;;;2.11;73.91;99537.44;4993799;28;20053;-76
2023/11/22 10:16:59;;;;;;;1.10;1.10;;;;;;;2.08;74.58;99537.22;4988761;28;20653;-76
2023/11/22 10:19:26;;;;;;;1.10;1.10;;;;;;;2.24;73.64;99540.19;4987164;28;20040;-76
2023/11/22 10:22:06;;;;;;;1.10;1.10;;;;;;;2.36;73.72;99529.66;4986105;28;20077;-77
2023/11/22 10:24:35;;;;;;;1.10;1.10;;;;;;;2.26;73.40;99532.41;4981130;28;20043;-77
2023/11/22 10:27:01;;;;;;;1.10;1.10;;;;;;;2.25;73.47;99534.13;4985204;28;20324;-77
2023/11/22 10:29:28;;;;;;;1.10;1.10;;;;;;;2.14;73.71;99536.75;4988111;28;20041;-76
2023/11/22 10:31:54;;;;;;;1.10;1.10;;;;;;;2.20;74.58;99538.13;4987049;28;20476;-77
2023/11/22 10:34:24;;;;;;;1.10;1.10;;;;;;;2.38;73.75;99529.75;4987799;28;20783;-78
2023/11/22 10:36:50;;;;;;;1.10;1.10;;;;;;;2.16;73.77;99527.28;4990497;28;20750;-77
2023/11/22 10:39:22;;;;;;;1.02;1.02;;;;;;;2.13;74.17;99529.66;4982684;28;20025;-77
2023/11/22 10:41:51;;;;;;;1.10;1.10;;;;;;;2.48;73.37;99530.53;4995012;28;20509;-77
2023/11/22 10:44:20;;;;;;;1.10;1.10;;;;;;;2.69;73.03;99519.75;4987197;28;20148;-77
2023/11/22 10:46:47;;;;;;;1.10;1.10;;;;;;;2.46;73.43;99531.25;4986449;28;20048;-78
2023/11/22 10:49:12;;;;;;;1.10;1.10;;;;;;;2.70;73.21;99532.13;4994467;28;20476;-78
2023/11/22 10:51:40;;;;;;;1.10;1.10;;;;;;;2.87;72.82;99530.69;4985390;28;20045;-78
2023/11/22 10:54:07;;;;;;;1.00;1.00;;;;;;;2.63;72.25;99536.00;4986099;28;20427;-78
2023/11/22 10:56:46;;;;;;;1.10;1.10;;;;;;;2.67;73.61;99532.81;4990481;28;20563;-78
2023/11/22 10:59:15;;;;;;;1.10;1.10;;;;;;;2.74;72.75;99536.81;4991820;28;20053;-76
2023/11/22 11:01:48;;;;;;;1.10;1.10;;;;;;;2.76;72.28;99543.09;4993162;28;20069;-76
2023/11/22 11:04:27;;;;;;;1.00;1.00;;;;;;;2.78;73.25;99539.78;4985364;28;20060;-76
2023/11/22 11:06:57;;;;;;;1.10;1.10;;;;;;;3.11;72.49;99547.34;4986188;28;20087;-77
2023/11/22 11:09:29;;;;;;;1.10;1.10;;;;;;;2.59;72.15;99557.69;4991701;28;20052;-79
2023/11/22 11:11:57;;;;;;;1.10;1.10;;;;;;;3.16;71.17;99559.13;4985568;28;20053;-77
2023/11/22 11:14:23;;;;;;;1.10;1.10;;;;;;;2.67;70.23;99560.88;4984549;28;20026;-80
2023/11/22 11:16:54;;;;;;;1.10;1.10;;;;;;;2.94;69.27;99559.34;4992039;28;20048;-79
2023/11/22 11:19:22;;;;;;;1.10;1.10;;;;;;;3.27;69.28;99552.91;4986422;28;20061;-79
2023/11/22 11:21:48;;;;;;;1.10;1.10;;;;;;;3.01;66.39;99551.97;4991232;28;20035;-80
2023/11/22 11:24:16;;;;;;;1.10;1.10;;;;;;;2.99;66.18;99552.66;4984183;28;20044;-79
2023/11/22 11:26:52;;;;;;;1.02;1.02;;;;;;;3.11;68.72;99549.97;4983001;28;20038;-79
2023/11/22 11:29:32;;;;;;;1.10;1.10;;;;;;;2.88;67.09;99554.53;4992988;28;20137;-78
2023/11/22 11:31:58;;;;;;;1.10;1.10;;;;;;;2.86;67.30;99550.84;4986047;28;20041;-79
2023/11/22 11:34:24;;;;;;;1.00;1.00;;;;;;;3.46;68.73;99552.50;4990798;28;20030;-78
2023/11/22 11:36:54;;;;;;;1.10;1.10;;;;;;;3.22;66.40;99546.41;4984765;28;20076;-78
2023/11/22 11:39:29;;;;;;;0.90;0.90;;;;;;;3.47;66.51;99547.31;4969310;28;20053;-78
2023/11/22 11:42:08;;;;;;;1.00;1.00;;;;;;;3.01;66.74;99551.03;4991365;28;20044;-78